sensor_id;sensor_type;location;lat;lon;timestamp;P1;durP1;ratioP1;P2;durP2;ratioP2
209;SDS011;90;48.810;9.120;2023-06-22T00:00:51;18.13;;;13.37;;
209;SDS011;90;48.810;9.120;2023-06-22T00:03:19;19.90;;;13.43;;
209;SDS011;90;48.810;9.120;2023-06-22T00:05:48;17.40;;;13.07;;
209;SDS011;90;48.810;9.120;2023-06-22T00:08:16;15.63;;;13.60;;
209;SDS011;90;48.810;9.120;2023-06-22T00:10:43;18.80;;;13.60;;
209;SDS011;90;48.810;9.120;2023-06-22T00:13:11;16.63;;;13.50;;
209;SDS011;90;48.810;9.120;2023-06-22T00:15:39;21.07;;;14.87;;
209;SDS011;90;48.810;9.120;2023-06-22T00:18:08;19.27;;;12.43;;
209;SDS011;90;48.810;9.120;2023-06-22T00:20:36;20.37;;;14.13;;
209;SDS011;90;48.810;9.120;2023-06-22T00:23:04;15.40;;;14.17;;
209;SDS011;90;48.810;9.120;2023-06-22T00:25:33;18.30;;;13.43;;
209;SDS011;90;48.810;9.120;2023-06-22T00:28:01;17.63;;;12.97;;
209;SDS011;90;48.810;9.120;2023-06-22T00:30:28;17.43;;;13.30;;
209;SDS011;90;48.810;9.120;2023-06-22T00:32:55;18.73;;;13.87;;
209;SDS011;90;48.810;9.120;2023-06-22T00:35:23;20.13;;;14.90;;
209;SDS011;90;48.810;9.120;2023-06-22T00:37:54;20.50;;;13.02;;
209;SDS011;90;48.810;9.120;2023-06-22T00:40:25;16.10;;;13.10;;
209;SDS011;90;48.810;9.120;2023-06-22T00:42:52;18.37;;;14.57;;
209;SDS011;90;48.810;9.120;2023-06-22T00:45:20;15.97;;;13.33;;
209;SDS011;90;48.810;9.120;2023-06-22T00:47:46;17.73;;;13.90;;
209;SDS011;90;48.810;9.120;2023-06-22T00:50:15;16.20;;;13.90;;
209;SDS011;90;48.810;9.120;2023-06-22T00:52:47;18.83;;;14.17;;
209;SDS011;90;48.810;9.120;2023-06-22T00:55:16;17.10;;;12.80;;
209;SDS011;90;48.810;9.120;2023-06-22T00:57:44;17.13;;;13.07;;
209;SDS011;90;48.810;9.120;2023-06-22T01:00:12;19.90;;;14.00;;
209;SDS011;90;48.810;9.120;2023-06-22T01:02:40;16.53;;;14.20;;
209;SDS011;90;48.810;9.120;2023-06-22T01:05:09;18.03;;;13.97;;
209;SDS011;90;48.810;9.120;2023-06-22T01:07:38;16.13;;;13.73;;
209;SDS011;90;48.810;9.120;2023-06-22T01:10:13;15.30;;;13.50;;
209;SDS011;90;48.810;9.120;2023-06-22T01:12:47;24.17;;;14.17;;
209;SDS011;90;48.810;9.120;2023-06-22T01:15:18;14.97;;;12.97;;
209;SDS011;90;48.810;9.120;2023-06-22T01:17:49;18.23;;;12.93;;
209;SDS011;90;48.810;9.120;2023-06-22T01:20:17;17.80;;;13.50;;
209;SDS011;90;48.810;9.120;2023-06-22T01:22:46;17.70;;;12.80;;
209;SDS011;90;48.810;9.120;2023-06-22T01:25:28;18.97;;;12.63;;
209;SDS011;90;48.810;9.120;2023-06-22T01:28:03;20.30;;;13.90;;
209;SDS011;90;48.810;9.120;2023-06-22T01:30:41;16.33;;;13.70;;
209;SDS011;90;48.810;9.120;2023-06-22T01:33:11;18.03;;;14.07;;
209;SDS011;90;48.810;9.120;2023-06-22T01:35:39;15.43;;;12.70;;
209;SDS011;90;48.810;9.120;2023-06-22T01:38:07;16.13;;;12.83;;
209;SDS011;90;48.810;9.120;2023-06-22T01:40:35;17.20;;;13.30;;
209;SDS011;90;48.810;9.120;2023-06-22T01:43:03;18.70;;;13.20;;
209;SDS011;90;48.810;9.120;2023-06-22T01:45:31;23.37;;;13.13;;
209;SDS011;90;48.810;9.120;2023-06-22T01:47:59;19.67;;;12.50;;
209;SDS011;90;48.810;9.120;2023-06-22T01:50:26;18.83;;;13.47;;
209;SDS011;90;48.810;9.120;2023-06-22T01:52:53;17.50;;;13.70;;
209;SDS011;90;48.810;9.120;2023-06-22T01:55:20;22.10;;;14.00;;
209;SDS011;90;48.810;9.120;2023-06-22T01:57:46;16.97;;;13.07;;
209;SDS011;90;48.810;9.120;2023-06-22T02:00:14;18.53;;;13.77;;
209;SDS011;90;48.810;9.120;2023-06-22T02:02:46;21.67;;;13.10;;
209;SDS011;90;48.810;9.120;2023-06-22T02:05:33;17.63;;;12.90;;
209;SDS011;90;48.810;9.120;2023-06-22T02:08:05;19.73;;;12.87;;
209;SDS011;90;48.810;9.120;2023-06-22T02:10:35;19.50;;;13.00;;
209;SDS011;90;48.810;9.120;2023-06-22T02:13:06;17.40;;;12.87;;
209;SDS011;90;48.810;9.120;2023-06-22T02:15:34;22.07;;;12.70;;
209;SDS011;90;48.810;9.120;2023-06-22T02:18:01;18.60;;;12.90;;
209;SDS011;90;48.810;9.120;2023-06-22T02:20:28;23.83;;;14.73;;
209;SDS011;90;48.810;9.120;2023-06-22T02:22:56;16.53;;;12.37;;
209;SDS011;90;48.810;9.120;2023-06-22T02:25:22;18.50;;;13.57;;
209;SDS011;90;48.810;9.120;2023-06-22T02:27:49;20.67;;;14.03;;
209;SDS011;90;48.810;9.120;2023-06-22T02:30:16;16.90;;;13.13;;
209;SDS011;90;48.810;9.120;2023-06-22T02:32:43;20.20;;;14.03;;
209;SDS011;90;48.810;9.120;2023-06-22T02:35:09;18.20;;;13.27;;
209;SDS011;90;48.810;9.120;2023-06-22T02:37:36;23.90;;;14.60;;
209;SDS011;90;48.810;9.120;2023-06-22T02:40:08;15.80;;;12.97;;
209;SDS011;90;48.810;9.120;2023-06-22T02:42:35;16.97;;;13.40;;
209;SDS011;90;48.810;9.120;2023-06-22T02:45:02;18.03;;;13.17;;
209;SDS011;90;48.810;9.120;2023-06-22T02:47:29;16.27;;;13.37;;
209;SDS011;90;48.810;9.120;2023-06-22T02:49:56;17.30;;;13.10;;
209;SDS011;90;48.810;9.120;2023-06-22T02:52:23;16.93;;;12.63;;
209;SDS011;90;48.810;9.120;2023-06-22T02:54:52;15.03;;;12.50;;
209;SDS011;90;48.810;9.120;2023-06-22T02:57:20;16.27;;;13.50;;
209;SDS011;90;48.810;9.120;2023-06-22T02:59:47;15.70;;;12.90;;
209;SDS011;90;48.810;9.120;2023-06-22T03:02:14;20.27;;;14.73;;
209;SDS011;90;48.810;9.120;2023-06-22T03:04:40;16.70;;;13.10;;
209;SDS011;90;48.810;9.120;2023-06-22T03:07:07;17.57;;;13.20;;
209;SDS011;90;48.810;9.120;2023-06-22T03:09:34;21.40;;;13.70;;
209;SDS011;90;48.810;9.120;2023-06-22T03:12:01;18.20;;;13.57;;
209;SDS011;90;48.810;9.120;2023-06-22T03:14:29;21.42;;;13.15;;
209;SDS011;90;48.810;9.120;2023-06-22T03:16:56;16.37;;;13.47;;
209;SDS011;90;48.810;9.120;2023-06-22T03:19:27;18.27;;;13.40;;
209;SDS011;90;48.810;9.120;2023-06-22T03:21:54;18.50;;;14.13;;
209;SDS011;90;48.810;9.120;2023-06-22T03:24:21;16.97;;;13.13;;
209;SDS011;90;48.810;9.120;2023-06-22T03:26:48;15.80;;;12.67;;
209;SDS011;90;48.810;9.120;2023-06-22T03:29:15;17.13;;;12.63;;
209;SDS011;90;48.810;9.120;2023-06-22T03:31:43;16.70;;;13.13;;
209;SDS011;90;48.810;9.120;2023-06-22T03:34:09;16.40;;;13.20;;
209;SDS011;90;48.810;9.120;2023-06-22T03:36:36;16.10;;;12.50;;
209;SDS011;90;48.810;9.120;2023-06-22T03:39:03;15.70;;;12.40;;
209;SDS011;90;48.810;9.120;2023-06-22T03:41:29;18.03;;;12.47;;
209;SDS011;90;48.810;9.120;2023-06-22T03:43:56;13.93;;;12.47;;
209;SDS011;90;48.810;9.120;2023-06-22T03:46:23;17.43;;;12.33;;
209;SDS011;90;48.810;9.120;2023-06-22T03:48:51;14.50;;;12.30;;
209;SDS011;90;48.810;9.120;2023-06-22T03:51:18;15.30;;;12.60;;
209;SDS011;90;48.810;9.120;2023-06-22T03:53:45;16.57;;;12.73;;
209;SDS011;90;48.810;9.120;2023-06-22T03:56:13;15.33;;;13.50;;
209;SDS011;90;48.810;9.120;2023-06-22T03:58:45;17.13;;;12.00;;
209;SDS011;90;48.810;9.120;2023-06-22T04:01:11;18.40;;;12.90;;
209;SDS011;90;48.810;9.120;2023-06-22T04:03:38;16.37;;;12.63;;
209;SDS011;90;48.810;9.120;2023-06-22T04:06:07;18.53;;;13.10;;
209;SDS011;90;48.810;9.120;2023-06-22T04:08:33;16.60;;;11.77;;
209;SDS011;90;48.810;9.120;2023-06-22T04:11:00;20.13;;;14.27;;
209;SDS011;90;48.810;9.120;2023-06-22T04:13:27;17.30;;;13.83;;
209;SDS011;90;48.810;9.120;2023-06-22T04:15:54;12.80;;;12.10;;
209;SDS011;90;48.810;9.120;2023-06-22T04:18:20;19.17;;;14.33;;
209;SDS011;90;48.810;9.120;2023-06-22T04:20:47;17.60;;;13.37;;
209;SDS011;90;48.810;9.120;2023-06-22T04:23:15;21.00;;;12.70;;
209;SDS011;90;48.810;9.120;2023-06-22T04:25:42;15.17;;;13.40;;
209;SDS011;90;48.810;9.120;2023-06-22T04:28:08;17.37;;;13.67;;
209;SDS011;90;48.810;9.120;2023-06-22T04:30:37;18.07;;;13.67;;
209;SDS011;90;48.810;9.120;2023-06-22T04:33:11;18.47;;;12.90;;
209;SDS011;90;48.810;9.120;2023-06-22T04:35:39;17.20;;;13.67;;
209;SDS011;90;48.810;9.120;2023-06-22T04:38:07;18.97;;;14.67;;
209;SDS011;90;48.810;9.120;2023-06-22T04:40:35;19.50;;;14.80;;
209;SDS011;90;48.810;9.120;2023-06-22T04:43:03;18.70;;;14.27;;
209;SDS011;90;48.810;9.120;2023-06-22T04:45:31;21.33;;;14.73;;
209;SDS011;90;48.810;9.120;2023-06-22T04:48:03;20.80;;;14.70;;
209;SDS011;90;48.810;9.120;2023-06-22T04:50:30;17.57;;;14.00;;
209;SDS011;90;48.810;9.120;2023-06-22T04:52:57;14.40;;;12.70;;
209;SDS011;90;48.810;9.120;2023-06-22T04:55:24;15.63;;;11.10;;
209;SDS011;90;48.810;9.120;2023-06-22T04:57:52;13.30;;;11.50;;
209;SDS011;90;48.810;9.120;2023-06-22T05:00:19;17.00;;;11.77;;
209;SDS011;90;48.810;9.120;2023-06-22T05:02:48;16.93;;;12.50;;
209;SDS011;90;48.810;9.120;2023-06-22T05:05:15;17.07;;;12.37;;
209;SDS011;90;48.810;9.120;2023-06-22T05:07:42;14.20;;;11.80;;
209;SDS011;90;48.810;9.120;2023-06-22T05:10:12;14.83;;;11.73;;
209;SDS011;90;48.810;9.120;2023-06-22T05:12:40;21.40;;;11.43;;
209;SDS011;90;48.810;9.120;2023-06-22T05:15:08;15.07;;;12.27;;
209;SDS011;90;48.810;9.120;2023-06-22T05:17:36;19.13;;;12.60;;
209;SDS011;90;48.810;9.120;2023-06-22T05:20:08;16.77;;;12.47;;
209;SDS011;90;48.810;9.120;2023-06-22T05:22:35;16.67;;;12.60;;
209;SDS011;90;48.810;9.120;2023-06-22T05:25:02;18.50;;;13.07;;
209;SDS011;90;48.810;9.120;2023-06-22T05:27:29;17.00;;;11.57;;
209;SDS011;90;48.810;9.120;2023-06-22T05:29:56;17.17;;;12.50;;
209;SDS011;90;48.810;9.120;2023-06-22T05:32:24;15.90;;;12.00;;
209;SDS011;90;48.810;9.120;2023-06-22T05:34:51;16.83;;;12.23;;
209;SDS011;90;48.810;9.120;2023-06-22T05:37:17;17.97;;;13.63;;
209;SDS011;90;48.810;9.120;2023-06-22T05:39:44;17.90;;;12.70;;
209;SDS011;90;48.810;9.120;2023-06-22T05:42:10;16.33;;;12.50;;
209;SDS011;90;48.810;9.120;2023-06-22T05:44:37;18.43;;;11.77;;
209;SDS011;90;48.810;9.120;2023-06-22T05:47:05;14.80;;;11.30;;
209;SDS011;90;48.810;9.120;2023-06-22T05:49:33;17.87;;;12.10;;
209;SDS011;90;48.810;9.120;2023-06-22T05:52:00;16.20;;;11.20;;
209;SDS011;90;48.810;9.120;2023-06-22T05:54:27;15.40;;;11.40;;
209;SDS011;90;48.810;9.120;2023-06-22T05:56:54;19.03;;;11.80;;
209;SDS011;90;48.810;9.120;2023-06-22T05:59:20;16.67;;;11.50;;
209;SDS011;90;48.810;9.120;2023-06-22T06:01:47;14.33;;;10.80;;
209;SDS011;90;48.810;9.120;2023-06-22T06:04:15;16.50;;;12.60;;
209;SDS011;90;48.810;9.120;2023-06-22T06:06:43;24.70;;;11.40;;
209;SDS011;90;48.810;9.120;2023-06-22T06:09:12;30.50;;;12.17;;
209;SDS011;90;48.810;9.120;2023-06-22T06:11:38;14.13;;;11.87;;
209;SDS011;90;48.810;9.120;2023-06-22T06:14:05;18.67;;;10.53;;
209;SDS011;90;48.810;9.120;2023-06-22T06:16:32;12.13;;;11.20;;
209;SDS011;90;48.810;9.120;2023-06-22T06:18:59;20.27;;;12.70;;
209;SDS011;90;48.810;9.120;2023-06-22T06:21:25;14.50;;;11.17;;
209;SDS011;90;48.810;9.120;2023-06-22T06:23:53;18.23;;;11.37;;
209;SDS011;90;48.810;9.120;2023-06-22T06:26:20;14.50;;;11.10;;
209;SDS011;90;48.810;9.120;2023-06-22T06:28:55;15.57;;;10.93;;
209;SDS011;90;48.810;9.120;2023-06-22T06:31:22;14.17;;;11.67;;
209;SDS011;90;48.810;9.120;2023-06-22T06:33:49;19.53;;;10.97;;
209;SDS011;90;48.810;9.120;2023-06-22T06:36:15;17.20;;;12.13;;
209;SDS011;90;48.810;9.120;2023-06-22T06:38:43;16.57;;;11.33;;
209;SDS011;90;48.810;9.120;2023-06-22T06:41:11;16.03;;;11.57;;
209;SDS011;90;48.810;9.120;2023-06-22T06:43:37;14.03;;;11.43;;
209;SDS011;90;48.810;9.120;2023-06-22T06:46:04;14.53;;;11.27;;
209;SDS011;90;48.810;9.120;2023-06-22T06:48:31;14.97;;;10.77;;
209;SDS011;90;48.810;9.120;2023-06-22T06:50:58;17.90;;;12.27;;
209;SDS011;90;48.810;9.120;2023-06-22T06:53:25;12.33;;;11.20;;
209;SDS011;90;48.810;9.120;2023-06-22T06:55:51;16.80;;;11.40;;
209;SDS011;90;48.810;9.120;2023-06-22T06:58:20;15.67;;;11.67;;
209;SDS011;90;48.810;9.120;2023-06-22T07:00:48;19.73;;;11.20;;
209;SDS011;90;48.810;9.120;2023-06-22T07:03:14;15.87;;;11.80;;
209;SDS011;90;48.810;9.120;2023-06-22T07:05:41;13.77;;;10.43;;
209;SDS011;90;48.810;9.120;2023-06-22T07:08:08;14.73;;;10.53;;
209;SDS011;90;48.810;9.120;2023-06-22T07:10:34;20.93;;;11.30;;
209;SDS011;90;48.810;9.120;2023-06-22T07:13:01;15.37;;;10.37;;
209;SDS011;90;48.810;9.120;2023-06-22T07:15:29;16.53;;;10.43;;
209;SDS011;90;48.810;9.120;2023-06-22T07:17:56;14.47;;;10.97;;
209;SDS011;90;48.810;9.120;2023-06-22T07:20:23;15.30;;;10.47;;
209;SDS011;90;48.810;9.120;2023-06-22T07:22:49;16.67;;;10.27;;
209;SDS011;90;48.810;9.120;2023-06-22T07:25:17;16.00;;;10.57;;
209;SDS011;90;48.810;9.120;2023-06-22T07:27:44;15.10;;;10.33;;
209;SDS011;90;48.810;9.120;2023-06-22T07:30:13;17.83;;;10.80;;
209;SDS011;90;48.810;9.120;2023-06-22T07:32:41;15.60;;;11.47;;
209;SDS011;90;48.810;9.120;2023-06-22T07:35:08;14.02;;;10.35;;
209;SDS011;90;48.810;9.120;2023-06-22T07:37:35;14.07;;;10.70;;
209;SDS011;90;48.810;9.120;2023-06-22T07:40:02;15.57;;;10.23;;
209;SDS011;90;48.810;9.120;2023-06-22T07:42:31;14.50;;;9.97;;
209;SDS011;90;48.810;9.120;2023-06-22T07:44:58;15.17;;;10.40;;
209;SDS011;90;48.810;9.120;2023-06-22T07:47:25;16.17;;;10.23;;
209;SDS011;90;48.810;9.120;2023-06-22T07:49:54;11.47;;;9.43;;
209;SDS011;90;48.810;9.120;2023-06-22T07:52:22;11.07;;;10.10;;
209;SDS011;90;48.810;9.120;2023-06-22T07:54:50;15.50;;;10.77;;
209;SDS011;90;48.810;9.120;2023-06-22T07:57:17;12.83;;;9.90;;
209;SDS011;90;48.810;9.120;2023-06-22T07:59:43;12.77;;;10.33;;
209;SDS011;90;48.810;9.120;2023-06-22T08:02:10;13.43;;;10.20;;
209;SDS011;90;48.810;9.120;2023-06-22T08:04:37;11.93;;;10.23;;
209;SDS011;90;48.810;9.120;2023-06-22T08:07:06;10.33;;;9.70;;
209;SDS011;90;48.810;9.120;2023-06-22T08:09:32;12.90;;;9.90;;
209;SDS011;90;48.810;9.120;2023-06-22T08:11:59;12.10;;;9.83;;
209;SDS011;90;48.810;9.120;2023-06-22T08:14:26;11.23;;;10.10;;
209;SDS011;90;48.810;9.120;2023-06-22T08:16:53;16.53;;;10.10;;
209;SDS011;90;48.810;9.120;2023-06-22T08:19:20;11.90;;;9.03;;
209;SDS011;90;48.810;9.120;2023-06-22T08:21:46;13.97;;;9.43;;
209;SDS011;90;48.810;9.120;2023-06-22T08:24:14;11.60;;;10.27;;
209;SDS011;90;48.810;9.120;2023-06-22T08:26:41;14.00;;;10.57;;
209;SDS011;90;48.810;9.120;2023-06-22T08:29:08;15.40;;;10.23;;
209;SDS011;90;48.810;9.120;2023-06-22T08:31:35;14.87;;;10.30;;
209;SDS011;90;48.810;9.120;2023-06-22T08:34:02;12.30;;;9.53;;
209;SDS011;90;48.810;9.120;2023-06-22T08:36:29;10.37;;;9.60;;
209;SDS011;90;48.810;9.120;2023-06-22T08:38:58;17.23;;;9.70;;
209;SDS011;90;48.810;9.120;2023-06-22T08:41:27;13.63;;;10.57;;
209;SDS011;90;48.810;9.120;2023-06-22T08:43:54;12.87;;;9.90;;
209;SDS011;90;48.810;9.120;2023-06-22T08:46:22;12.60;;;9.63;;
209;SDS011;90;48.810;9.120;2023-06-22T08:48:55;15.90;;;10.53;;
209;SDS011;90;48.810;9.120;2023-06-22T08:51:22;14.50;;;10.23;;
209;SDS011;90;48.810;9.120;2023-06-22T08:53:48;11.63;;;10.23;;
209;SDS011;90;48.810;9.120;2023-06-22T08:56:15;12.33;;;9.77;;
209;SDS011;90;48.810;9.120;2023-06-22T08:58:43;11.33;;;9.77;;
209;SDS011;90;48.810;9.120;2023-06-22T09:01:10;11.57;;;8.70;;
209;SDS011;90;48.810;9.120;2023-06-22T09:03:36;11.10;;;9.10;;
209;SDS011;90;48.810;9.120;2023-06-22T09:06:03;15.17;;;10.30;;
209;SDS011;90;48.810;9.120;2023-06-22T09:08:30;13.20;;;10.47;;
209;SDS011;90;48.810;9.120;2023-06-22T09:10:56;21.73;;;10.13;;
209;SDS011;90;48.810;9.120;2023-06-22T09:13:23;15.60;;;9.73;;
209;SDS011;90;48.810;9.120;2023-06-22T09:15:51;20.13;;;10.53;;
209;SDS011;90;48.810;9.120;2023-06-22T09:18:18;15.93;;;10.67;;
209;SDS011;90;48.810;9.120;2023-06-22T09:20:45;13.00;;;9.40;;
209;SDS011;90;48.810;9.120;2023-06-22T09:23:12;15.83;;;10.40;;
209;SDS011;90;48.810;9.120;2023-06-22T09:25:39;12.77;;;9.43;;
209;SDS011;90;48.810;9.120;2023-06-22T09:28:06;12.83;;;9.60;;
209;SDS011;90;48.810;9.120;2023-06-22T09:30:33;15.00;;;10.40;;
209;SDS011;90;48.810;9.120;2023-06-22T09:33:01;13.10;;;9.63;;
209;SDS011;90;48.810;9.120;2023-06-22T09:35:27;20.43;;;10.33;;
209;SDS011;90;48.810;9.120;2023-06-22T09:37:54;17.43;;;10.50;;
209;SDS011;90;48.810;9.120;2023-06-22T09:40:21;14.67;;;9.70;;
209;SDS011;90;48.810;9.120;2023-06-22T09:42:47;16.40;;;10.17;;
209;SDS011;90;48.810;9.120;2023-06-22T09:45:14;15.13;;;10.13;;
209;SDS011;90;48.810;9.120;2023-06-22T09:47:41;15.80;;;9.63;;
209;SDS011;90;48.810;9.120;2023-06-22T09:50:09;15.20;;;10.70;;
209;SDS011;90;48.810;9.120;2023-06-22T09:52:36;14.77;;;10.07;;
209;SDS011;90;48.810;9.120;2023-06-22T09:55:03;20.43;;;10.50;;
209;SDS011;90;48.810;9.120;2023-06-22T09:57:30;18.50;;;10.53;;
209;SDS011;90;48.810;9.120;2023-06-22T09:59:57;11.83;;;10.17;;
209;SDS011;90;48.810;9.120;2023-06-22T10:02:23;15.27;;;9.53;;
209;SDS011;90;48.810;9.120;2023-06-22T10:04:50;11.17;;;10.13;;
209;SDS011;90;48.810;9.120;2023-06-22T10:07:18;15.15;;;9.77;;
209;SDS011;90;48.810;9.120;2023-06-22T10:09:45;17.60;;;10.50;;
209;SDS011;90;48.810;9.120;2023-06-22T10:12:11;14.40;;;9.67;;
209;SDS011;90;48.810;9.120;2023-06-22T10:14:38;15.80;;;11.10;;
209;SDS011;90;48.810;9.120;2023-06-22T10:17:05;14.70;;;10.27;;
209;SDS011;90;48.810;9.120;2023-06-22T10:19:33;18.10;;;10.50;;
209;SDS011;90;48.810;9.120;2023-06-22T10:22:02;17.23;;;10.00;;
209;SDS011;90;48.810;9.120;2023-06-22T10:24:30;15.33;;;10.40;;
209;SDS011;90;48.810;9.120;2023-06-22T10:26:57;14.97;;;10.57;;
209;SDS011;90;48.810;9.120;2023-06-22T10:29:24;18.80;;;10.83;;
209;SDS011;90;48.810;9.120;2023-06-22T10:31:51;13.23;;;9.80;;
209;SDS011;90;48.810;9.120;2023-06-22T10:34:17;20.07;;;11.00;;
209;SDS011;90;48.810;9.120;2023-06-22T10:36:44;17.53;;;10.53;;
209;SDS011;90;48.810;9.120;2023-06-22T10:39:13;19.33;;;10.80;;
209;SDS011;90;48.810;9.120;2023-06-22T10:41:41;12.07;;;9.63;;
209;SDS011;90;48.810;9.120;2023-06-22T10:44:08;19.50;;;10.80;;
209;SDS011;90;48.810;9.120;2023-06-22T10:46:35;17.30;;;10.77;;
209;SDS011;90;48.810;9.120;2023-06-22T10:49:02;16.70;;;11.30;;
209;SDS011;90;48.810;9.120;2023-06-22T10:51:29;14.30;;;10.73;;
209;SDS011;90;48.810;9.120;2023-06-22T10:53:56;16.23;;;10.30;;
209;SDS011;90;48.810;9.120;2023-06-22T10:56:23;16.90;;;10.70;;
209;SDS011;90;48.810;9.120;2023-06-22T10:58:51;13.70;;;10.33;;
209;SDS011;90;48.810;9.120;2023-06-22T11:01:18;21.53;;;11.57;;
209;SDS011;90;48.810;9.120;2023-06-22T11:03:46;16.27;;;10.83;;
209;SDS011;90;48.810;9.120;2023-06-22T11:06:12;17.80;;;11.80;;
209;SDS011;90;48.810;9.120;2023-06-22T11:08:43;16.00;;;10.07;;
209;SDS011;90;48.810;9.120;2023-06-22T11:11:10;15.53;;;10.33;;
209;SDS011;90;48.810;9.120;2023-06-22T11:13:36;17.03;;;10.93;;
209;SDS011;90;48.810;9.120;2023-06-22T11:16:05;23.80;;;12.10;;
209;SDS011;90;48.810;9.120;2023-06-22T11:18:32;19.77;;;10.65;;
209;SDS011;90;48.810;9.120;2023-06-22T11:20:59;21.07;;;12.00;;
209;SDS011;90;48.810;9.120;2023-06-22T11:23:26;21.10;;;10.80;;
209;SDS011;90;48.810;9.120;2023-06-22T11:25:53;25.63;;;11.40;;
209;SDS011;90;48.810;9.120;2023-06-22T11:28:20;12.10;;;10.40;;
209;SDS011;90;48.810;9.120;2023-06-22T11:30:46;18.73;;;11.27;;
209;SDS011;90;48.810;9.120;2023-06-22T11:33:15;17.43;;;11.43;;
209;SDS011;90;48.810;9.120;2023-06-22T11:35:41;17.27;;;11.17;;
209;SDS011;90;48.810;9.120;2023-06-22T11:38:08;15.50;;;11.20;;
209;SDS011;90;48.810;9.120;2023-06-22T11:40:35;17.10;;;10.80;;
209;SDS011;90;48.810;9.120;2023-06-22T11:43:01;18.77;;;10.80;;
209;SDS011;90;48.810;9.120;2023-06-22T11:45:28;21.53;;;11.57;;
209;SDS011;90;48.810;9.120;2023-06-22T11:47:55;18.50;;;10.83;;
209;SDS011;90;48.810;9.120;2023-06-22T11:50:23;19.10;;;10.77;;
209;SDS011;90;48.810;9.120;2023-06-22T11:52:50;18.93;;;10.70;;
209;SDS011;90;48.810;9.120;2023-06-22T11:55:18;21.80;;;10.83;;
209;SDS011;90;48.810;9.120;2023-06-22T11:57:54;17.43;;;10.87;;
209;SDS011;90;48.810;9.120;2023-06-22T12:00:23;23.70;;;10.80;;
209;SDS011;90;48.810;9.120;2023-06-22T12:02:50;17.53;;;9.77;;
209;SDS011;90;48.810;9.120;2023-06-22T12:05:17;16.80;;;10.20;;
209;SDS011;90;48.810;9.120;2023-06-22T12:07:46;18.40;;;11.50;;
209;SDS011;90;48.810;9.120;2023-06-22T12:10:13;17.47;;;11.03;;
209;SDS011;90;48.810;9.120;2023-06-22T12:12:40;17.20;;;10.53;;
209;SDS011;90;48.810;9.120;2023-06-22T12:15:08;21.03;;;11.60;;
209;SDS011;90;48.810;9.120;2023-06-22T12:17:36;15.70;;;11.10;;
209;SDS011;90;48.810;9.120;2023-06-22T12:20:03;22.07;;;10.83;;
209;SDS011;90;48.810;9.120;2023-06-22T12:22:30;19.90;;;10.73;;
209;SDS011;90;48.810;9.120;2023-06-22T12:24:59;17.80;;;10.53;;
209;SDS011;90;48.810;9.120;2023-06-22T12:27:25;21.03;;;11.37;;
209;SDS011;90;48.810;9.120;2023-06-22T12:29:52;17.10;;;9.48;;
209;SDS011;90;48.810;9.120;2023-06-22T12:32:19;15.77;;;10.47;;
209;SDS011;90;48.810;9.120;2023-06-22T12:34:45;17.30;;;11.43;;
209;SDS011;90;48.810;9.120;2023-06-22T12:37:12;14.93;;;10.73;;
209;SDS011;90;48.810;9.120;2023-06-22T12:39:40;16.50;;;10.40;;
209;SDS011;90;48.810;9.120;2023-06-22T12:42:08;12.90;;;10.03;;
209;SDS011;90;48.810;9.120;2023-06-22T12:44:37;13.23;;;10.03;;
209;SDS011;90;48.810;9.120;2023-06-22T12:47:04;20.67;;;11.47;;
209;SDS011;90;48.810;9.120;2023-06-22T12:49:31;15.37;;;10.30;;
209;SDS011;90;48.810;9.120;2023-06-22T12:51:58;17.27;;;9.90;;
209;SDS011;90;48.810;9.120;2023-06-22T12:54:25;17.57;;;10.20;;
209;SDS011;90;48.810;9.120;2023-06-22T12:56:52;16.27;;;10.63;;
209;SDS011;90;48.810;9.120;2023-06-22T12:59:20;16.50;;;10.90;;
209;SDS011;90;48.810;9.120;2023-06-22T13:01:47;21.30;;;11.10;;
209;SDS011;90;48.810;9.120;2023-06-22T13:04:14;22.27;;;11.50;;
209;SDS011;90;48.810;9.120;2023-06-22T13:06:41;19.37;;;11.83;;
209;SDS011;90;48.810;9.120;2023-06-22T13:09:09;20.03;;;11.50;;
209;SDS011;90;48.810;9.120;2023-06-22T13:11:36;16.43;;;10.73;;
209;SDS011;90;48.810;9.120;2023-06-22T13:14:03;19.93;;;11.13;;
209;SDS011;90;48.810;9.120;2023-06-22T13:16:31;16.83;;;11.20;;
209;SDS011;90;48.810;9.120;2023-06-22T13:18:57;20.67;;;10.70;;
209;SDS011;90;48.810;9.120;2023-06-22T13:21:24;19.40;;;11.07;;
209;SDS011;90;48.810;9.120;2023-06-22T13:23:51;17.37;;;10.77;;
209;SDS011;90;48.810;9.120;2023-06-22T13:26:18;31.20;;;11.43;;
209;SDS011;90;48.810;9.120;2023-06-22T13:28:45;23.90;;;13.43;;
209;SDS011;90;48.810;9.120;2023-06-22T13:31:11;17.77;;;11.60;;
209;SDS011;90;48.810;9.120;2023-06-22T13:33:39;16.97;;;11.60;;
209;SDS011;90;48.810;9.120;2023-06-22T13:36:06;14.97;;;11.40;;
209;SDS011;90;48.810;9.120;2023-06-22T13:38:33;18.23;;;12.10;;
209;SDS011;90;48.810;9.120;2023-06-22T13:41:03;22.73;;;11.30;;
209;SDS011;90;48.810;9.120;2023-06-22T13:43:30;20.42;;;11.02;;
209;SDS011;90;48.810;9.120;2023-06-22T13:45:56;18.77;;;12.40;;
209;SDS011;90;48.810;9.120;2023-06-22T13:48:23;14.83;;;10.50;;
209;SDS011;90;48.810;9.120;2023-06-22T13:50:54;31.00;;;12.27;;
209;SDS011;90;48.810;9.120;2023-06-22T13:53:24;16.40;;;11.37;;
209;SDS011;90;48.810;9.120;2023-06-22T13:55:50;22.30;;;11.47;;
209;SDS011;90;48.810;9.120;2023-06-22T13:58:17;16.13;;;10.80;;
209;SDS011;90;48.810;9.120;2023-06-22T14:00:44;20.30;;;12.00;;
209;SDS011;90;48.810;9.120;2023-06-22T14:03:12;15.47;;;10.70;;
209;SDS011;90;48.810;9.120;2023-06-22T14:05:40;19.20;;;11.13;;
209;SDS011;90;48.810;9.120;2023-06-22T14:08:08;20.93;;;10.70;;
209;SDS011;90;48.810;9.120;2023-06-22T14:10:36;13.00;;;10.67;;
209;SDS011;90;48.810;9.120;2023-06-22T14:13:02;16.67;;;10.90;;
209;SDS011;90;48.810;9.120;2023-06-22T14:15:30;15.50;;;11.50;;
209;SDS011;90;48.810;9.120;2023-06-22T14:17:57;16.50;;;9.73;;
209;SDS011;90;48.810;9.120;2023-06-22T14:20:24;21.97;;;11.40;;
209;SDS011;90;48.810;9.120;2023-06-22T14:22:51;17.70;;;11.33;;
209;SDS011;90;48.810;9.120;2023-06-22T14:25:18;17.20;;;11.23;;
209;SDS011;90;48.810;9.120;2023-06-22T14:27:45;21.47;;;10.63;;
209;SDS011;90;48.810;9.120;2023-06-22T14:30:12;18.90;;;10.63;;
209;SDS011;90;48.810;9.120;2023-06-22T14:32:39;17.50;;;10.67;;
209;SDS011;90;48.810;9.120;2023-06-22T14:35:06;16.80;;;9.53;;
209;SDS011;90;48.810;9.120;2023-06-22T14:37:33;19.10;;;9.20;;
209;SDS011;90;48.810;9.120;2023-06-22T14:40:00;21.13;;;10.73;;
209;SDS011;90;48.810;9.120;2023-06-22T14:42:28;18.97;;;9.60;;
209;SDS011;90;48.810;9.120;2023-06-22T14:44:55;19.60;;;10.60;;
209;SDS011;90;48.810;9.120;2023-06-22T14:47:22;20.33;;;9.73;;
209;SDS011;90;48.810;9.120;2023-06-22T14:49:48;14.73;;;9.30;;
209;SDS011;90;48.810;9.120;2023-06-22T14:52:15;17.25;;;9.55;;
209;SDS011;90;48.810;9.120;2023-06-22T14:54:42;12.27;;;8.20;;
209;SDS011;90;48.810;9.120;2023-06-22T14:57:08;13.50;;;6.80;;
209;SDS011;90;48.810;9.120;2023-06-22T14:59:36;18.17;;;6.50;;
209;SDS011;90;48.810;9.120;2023-06-22T15:02:03;16.80;;;6.33;;
209;SDS011;90;48.810;9.120;2023-06-22T15:04:30;21.30;;;6.47;;
209;SDS011;90;48.810;9.120;2023-06-22T15:06:59;21.40;;;6.40;;
209;SDS011;90;48.810;9.120;2023-06-22T15:09:26;16.03;;;6.57;;
209;SDS011;90;48.810;9.120;2023-06-22T15:11:53;18.33;;;6.83;;
209;SDS011;90;48.810;9.120;2023-06-22T15:14:20;15.60;;;6.33;;
209;SDS011;90;48.810;9.120;2023-06-22T15:16:48;17.77;;;6.67;;
209;SDS011;90;48.810;9.120;2023-06-22T15:19:14;13.77;;;5.60;;
209;SDS011;90;48.810;9.120;2023-06-22T15:21:41;19.17;;;7.10;;
209;SDS011;90;48.810;9.120;2023-06-22T15:24:09;11.23;;;5.87;;
209;SDS011;90;48.810;9.120;2023-06-22T15:26:35;14.47;;;5.60;;
209;SDS011;90;48.810;9.120;2023-06-22T15:29:02;13.10;;;5.57;;
209;SDS011;90;48.810;9.120;2023-06-22T15:31:29;12.57;;;5.80;;
209;SDS011;90;48.810;9.120;2023-06-22T15:33:57;17.53;;;6.40;;